Reading, MA (01867)

1:27 PM EDT on August 29, 2014 (GMT -0400)
KMAREADI3 | Change Station
CLOSE
Current Station
Personal Weather Station
Location: Reading, MA
Elevation: 77 ft
Nearby Weather Stations

Elev 77 ft 42.54 °N, 71.09 °W | Updated 27 minutes ago

Partly Cloudy
Partly Cloudy
72.5 °F
Feels Like 77 °F
N
1.0
Wind Variable Wind from ESE
Gusts 9.0 mph

Today
High -- | Low -- °F
--% Chance of Precip.
Yesterday
High -- | Low -- °F
Precip. -- in
6:06 AM 7:23 PM
Waxing Crescent, 15% visible
Pressure 30.21 in
Visibility 10.0 miles
Clouds Mostly Cloudy 5500 ft
Heat Index 77 °F
Dew Point 56 °F
Humidity 57%
Rainfall 0.00 in
Snow Depth Not available.
UV 5 out of 12
Pollen 8.80 out of 12
PM2.5 Good
Flu Activity Not available.
METAR KBED 291656Z 18004KT 10SM BKN055 22/11 A3017 RMK AO2 SLP228 T02220111 PNO $

More Conditions Fewer Conditions

Pressure 30.21 in
Visibility 10.0 miles
Clouds Mostly Cloudy 5500 ft
Heat Index 77 °F
Dew Point 56 °F
Humidity 57%
Rainfall 0.00 in
Snow Depth Not available.
UV 5 out of 12
Pollen 8.80 out of 12
PM2.5 Good
Flu Activity Not available.
METAR KBED 291656Z 18004KT 10SM BKN055 22/11 A3017 RMK AO2 SLP228 T02220111 PNO $

More Conditions Fewer Conditions

10-Day Weather Forecast

Almanac

Astronomy

Aug. 29, 2014 Rise Set
Actual Time 6:06 AM EDT 7:23 PM EDT
Civil Twilight 5:36 AM EDT 7:52 PM EDT
Nautical Twilight 5:01 AM EDT 8:27 PM EDT
Astronomical Twilight 4:24 AM EDT 9:04 PM EDT
Moon 9:58 AM EDT 9:13 PM EDT
Length of Visible Light 14h 15m
Length of Day
13h 17m
Tomorrow will be 2m 45s shorter.
Waxing Crescent, 15% of the Moon is Illuminated
Today
Waxing Crescent
Sep 2
First Quarter
Sep 8
Full
Sep 15
Last Quarter
Sep 24
New

Today's Extremes

State Highs State Lows

Community

WunderPhotos

Upload Photos

1,748,299 photos uploaded!

Nearby

Air Quality

  Air Quality AQ Index Pollutant
Yesterday Good
OZONE
Yesterday Good
PM2.5
Current Good
PM2.5
Friday Good
PM2.5
Friday Good
OZONE

Snow Depth

Station Depth Elevation
No new snow has been reported.

Earthquake Activity

City Distance Mag. Time & Date
No recent earthquake activity has been reported nearby.
Minimum magnitude displayed is 2.5.

Coastal Water Temperatures

Place Temperature
Boston, MA 68.0 °F
Providence, RI 71.1 °F
Fall River, MA 73.0 °F
Conimicut Light, RI 73.0 °F

Nearby Weather Stations